sensor_id;sensor_type;location;lat;lon;timestamp;pressure;altitude;pressure_sealevel;temperature;humidity
36630;BME280;36256;42.154;23.002;2023-03-11T00:01:03;95416.31;;;12.53;100.00
36630;BME280;36256;42.154;23.002;2023-03-11T00:03:30;95426.06;;;12.41;100.00
36630;BME280;36256;42.154;23.002;2023-03-11T00:05:59;95437.81;;;12.45;100.00
36630;BME280;36256;42.154;23.002;2023-03-11T00:08:27;95449.78;;;12.07;100.00
36630;BME280;36256;42.154;23.002;2023-03-11T00:10:55;95483.94;;;11.78;100.00
36630;BME280;36256;42.154;23.002;2023-03-11T00:13:24;95500.13;;;11.52;100.00
36630;BME280;36256;42.154;23.002;2023-03-11T00:15:52;95507.91;;;11.26;100.00
36630;BME280;36256;42.154;23.002;2023-03-11T00:18:23;95510.59;;;11.09;100.00
36630;BME280;36256;42.154;23.002;2023-03-11T00:20:53;95520.00;;;11.00;100.00
36630;BME280;36256;42.154;23.002;2023-03-11T00:23:20;95518.09;;;10.86;100.00
36630;BME280;36256;42.154;23.002;2023-03-11T00:25:47;95521.16;;;10.83;100.00
36630;BME280;36256;42.154;23.002;2023-03-11T00:28:14;95521.91;;;10.83;100.00
36630;BME280;36256;42.154;23.002;2023-03-11T00:30:43;95511.25;;;10.87;100.00
36630;BME280;36256;42.154;23.002;2023-03-11T00:33:14;95512.59;;;10.97;100.00
36630;BME280;36256;42.154;23.002;2023-03-11T00:35:42;95508.75;;;11.00;100.00
36630;BME280;36256;42.154;23.002;2023-03-11T00:38:12;95517.00;;;11.10;100.00
36630;BME280;36256;42.154;23.002;2023-03-11T00:40:41;95502.00;;;11.18;100.00
36630;BME280;36256;42.154;23.002;2023-03-11T00:43:08;95506.19;;;11.34;100.00
36630;BME280;36256;42.154;23.002;2023-03-11T00:45:34;95502.41;;;11.48;100.00
36630;BME280;36256;42.154;23.002;2023-03-11T00:48:01;95501.44;;;11.62;100.00
36630;BME280;36256;42.154;23.002;2023-03-11T00:50:30;95487.16;;;11.60;100.00
36630;BME280;36256;42.154;23.002;2023-03-11T00:52:57;95495.41;;;11.69;100.00
36630;BME280;36256;42.154;23.002;2023-03-11T00:55:25;95506.13;;;11.70;100.00
36630;BME280;36256;42.154;23.002;2023-03-11T00:57:54;95509.44;;;11.74;100.00
36630;BME280;36256;42.154;23.002;2023-03-11T01:00:23;95494.91;;;11.76;100.00
36630;BME280;36256;42.154;23.002;2023-03-11T01:02:51;95492.53;;;11.63;100.00
36630;BME280;36256;42.154;23.002;2023-03-11T01:05:20;95476.41;;;11.53;100.00
36630;BME280;36256;42.154;23.002;2023-03-11T01:07:47;95474.34;;;11.53;100.00
36630;BME280;36256;42.154;23.002;2023-03-11T01:10:15;95455.22;;;11.57;100.00
36630;BME280;36256;42.154;23.002;2023-03-11T01:12:42;95453.69;;;11.56;100.00
36630;BME280;36256;42.154;23.002;2023-03-11T01:15:17;95444.78;;;11.63;100.00
36630;BME280;36256;42.154;23.002;2023-03-11T01:17:44;95451.16;;;11.58;100.00
36630;BME280;36256;42.154;23.002;2023-03-11T01:20:12;95444.22;;;11.54;100.00
36630;BME280;36256;42.154;23.002;2023-03-11T01:22:38;95441.16;;;11.52;100.00
36630;BME280;36256;42.154;23.002;2023-03-11T01:25:05;95437.88;;;11.59;100.00
36630;BME280;36256;42.154;23.002;2023-03-11T01:27:31;95434.56;;;11.66;100.00
36630;BME280;36256;42.154;23.002;2023-03-11T01:29:58;95435.66;;;11.74;100.00
36630;BME280;36256;42.154;23.002;2023-03-11T01:32:25;95432.59;;;11.83;100.00
36630;BME280;36256;42.154;23.002;2023-03-11T01:34:51;95427.75;;;11.89;100.00
36630;BME280;36256;42.154;23.002;2023-03-11T01:37:18;95423.69;;;11.85;100.00
36630;BME280;36256;42.154;23.002;2023-03-11T01:39:45;95425.69;;;11.73;100.00
36630;BME280;36256;42.154;23.002;2023-03-11T01:42:12;95425.69;;;11.67;100.00
36630;BME280;36256;42.154;23.002;2023-03-11T01:44:38;95430.97;;;11.60;100.00
36630;BME280;36256;42.154;23.002;2023-03-11T01:49:38;95406.69;;;11.46;100.00
36630;BME280;36256;42.154;23.002;2023-03-11T01:52:08;95414.91;;;11.66;100.00
36630;BME280;36256;42.154;23.002;2023-03-11T01:54:39;95419.25;;;11.61;100.00
36630;BME280;36256;42.154;23.002;2023-03-11T01:57:10;95421.06;;;11.70;100.00
36630;BME280;36256;42.154;23.002;2023-03-11T01:59:44;95415.47;;;11.75;100.00
36630;BME280;36256;42.154;23.002;2023-03-11T02:02:27;95412.94;;;11.77;100.00
36630;BME280;36256;42.154;23.002;2023-03-11T02:04:58;95408.56;;;11.76;100.00
36630;BME280;36256;42.154;23.002;2023-03-11T02:07:26;95416.78;;;11.80;100.00
36630;BME280;36256;42.154;23.002;2023-03-11T02:09:53;95422.38;;;11.80;100.00
36630;BME280;36256;42.154;23.002;2023-03-11T02:12:20;95428.00;;;11.80;100.00
36630;BME280;36256;42.154;23.002;2023-03-11T02:14:49;95437.97;;;11.81;100.00
36630;BME280;36256;42.154;23.002;2023-03-11T02:17:17;95429.00;;;11.77;100.00
36630;BME280;36256;42.154;23.002;2023-03-11T02:22:48;95432.13;;;11.85;100.00
36630;BME280;36256;42.154;23.002;2023-03-11T02:28:21;95431.09;;;11.82;100.00
36630;BME280;36256;42.154;23.002;2023-03-11T02:30:49;95442.56;;;11.84;100.00
36630;BME280;36256;42.154;23.002;2023-03-11T02:33:17;95439.50;;;11.88;100.00
36630;BME280;36256;42.154;23.002;2023-03-11T02:35:44;95447.69;;;11.80;100.00
36630;BME280;36256;42.154;23.002;2023-03-11T02:38:11;95451.53;;;11.88;100.00
36630;BME280;36256;42.154;23.002;2023-03-11T02:40:46;95452.03;;;11.92;100.00
36630;BME280;36256;42.154;23.002;2023-03-11T02:43:17;95446.44;;;11.92;100.00
36630;BME280;36256;42.154;23.002;2023-03-11T02:45:46;95447.47;;;12.00;100.00
36630;BME280;36256;42.154;23.002;2023-03-11T02:48:14;95448.75;;;12.10;100.00
36630;BME280;36256;42.154;23.002;2023-03-11T02:50:43;95445.69;;;12.19;100.00
36630;BME280;36256;42.154;23.002;2023-03-11T02:53:11;95462.56;;;12.14;100.00
36630;BME280;36256;42.154;23.002;2023-03-11T02:55:38;95454.13;;;11.97;100.00
36630;BME280;36256;42.154;23.002;2023-03-11T02:58:05;95460.47;;;11.98;100.00
36630;BME280;36256;42.154;23.002;2023-03-11T03:00:31;95461.75;;;11.91;100.00
36630;BME280;36256;42.154;23.002;2023-03-11T03:02:59;95464.84;;;11.93;100.00
36630;BME280;36256;42.154;23.002;2023-03-11T03:05:26;95449.75;;;11.96;100.00
36630;BME280;36256;42.154;23.002;2023-03-11T03:07:53;95451.56;;;11.99;100.00
36630;BME280;36256;42.154;23.002;2023-03-11T03:10:20;95450.53;;;12.02;100.00
36630;BME280;36256;42.154;23.002;2023-03-11T03:12:47;95456.19;;;12.13;100.00
36630;BME280;36256;42.154;23.002;2023-03-11T03:15:15;95443.38;;;12.01;100.00
36630;BME280;36256;42.154;23.002;2023-03-11T03:17:42;95444.41;;;12.09;100.00
36630;BME280;36256;42.154;23.002;2023-03-11T03:20:09;95437.25;;;12.08;100.00
36630;BME280;36256;42.154;23.002;2023-03-11T03:22:38;95434.44;;;11.97;100.00
36630;BME280;36256;42.154;23.002;2023-03-11T03:25:06;95435.69;;;11.96;100.00
36630;BME280;36256;42.154;23.002;2023-03-11T03:27:33;95435.69;;;11.96;100.00
36630;BME280;36256;42.154;23.002;2023-03-11T03:30:00;95425.94;;;11.75;100.00
36630;BME280;36256;42.154;23.002;2023-03-11T03:32:27;95426.97;;;11.72;100.00
36630;BME280;36256;42.154;23.002;2023-03-11T03:34:53;95446.91;;;11.74;100.00
36630;BME280;36256;42.154;23.002;2023-03-11T03:37:25;95440.19;;;11.66;100.00
36630;BME280;36256;42.154;23.002;2023-03-11T03:39:53;95428.16;;;11.49;100.00
36630;BME280;36256;42.154;23.002;2023-03-11T03:42:20;95443.22;;;11.57;100.00
36630;BME280;36256;42.154;23.002;2023-03-11T03:44:47;95454.41;;;11.46;100.00
36630;BME280;36256;42.154;23.002;2023-03-11T03:47:13;95454.84;;;11.28;100.00
36630;BME280;36256;42.154;23.002;2023-03-11T03:49:40;95459.13;;;11.18;100.00
36630;BME280;36256;42.154;23.002;2023-03-11T03:52:07;95438.22;;;11.19;100.00
36630;BME280;36256;42.154;23.002;2023-03-11T03:54:34;95452.50;;;11.21;100.00
36630;BME280;36256;42.154;23.002;2023-03-11T03:57:00;95453.31;;;11.27;100.00
36630;BME280;36256;42.154;23.002;2023-03-11T03:59:27;95465.13;;;11.42;100.00
36630;BME280;36256;42.154;23.002;2023-03-11T04:01:54;95472.78;;;11.47;100.00
36630;BME280;36256;42.154;23.002;2023-03-11T04:04:20;95469.19;;;11.41;100.00
36630;BME280;36256;42.154;23.002;2023-03-11T04:06:47;95466.63;;;11.37;100.00
36630;BME280;36256;42.154;23.002;2023-03-11T04:09:14;95474.22;;;11.26;100.00
36630;BME280;36256;42.154;23.002;2023-03-11T04:11:40;95472.63;;;11.14;100.00
36630;BME280;36256;42.154;23.002;2023-03-11T04:14:07;95475.16;;;11.12;100.00
36630;BME280;36256;42.154;23.002;2023-03-11T04:16:33;95478.75;;;11.18;100.00
36630;BME280;36256;42.154;23.002;2023-03-11T04:19:00;95478.28;;;11.19;100.00
36630;BME280;36256;42.154;23.002;2023-03-11T04:21:27;95480.13;;;11.28;100.00
36630;BME280;36256;42.154;23.002;2023-03-11T04:23:53;95464.28;;;11.30;100.00
36630;BME280;36256;42.154;23.002;2023-03-11T04:26:20;95480.59;;;11.26;100.00
36630;BME280;36256;42.154;23.002;2023-03-11T04:28:46;95479.81;;;11.26;100.00
36630;BME280;36256;42.154;23.002;2023-03-11T04:31:13;95480.38;;;11.30;100.00
36630;BME280;36256;42.154;23.002;2023-03-11T04:33:40;95485.94;;;11.19;100.00
36630;BME280;36256;42.154;23.002;2023-03-11T04:36:07;95482.38;;;11.24;100.00
36630;BME280;36256;42.154;23.002;2023-03-11T04:38:35;95483.63;;;11.17;100.00
36630;BME280;36256;42.154;23.002;2023-03-11T04:41:03;95486.47;;;11.23;100.00
36630;BME280;36256;42.154;23.002;2023-03-11T04:43:30;95492.16;;;11.34;100.00
36630;BME280;36256;42.154;23.002;2023-03-11T04:45:56;95492.91;;;11.34;100.00
36630;BME280;36256;42.154;23.002;2023-03-11T04:48:23;95503.91;;;11.38;100.00
36630;BME280;36256;42.154;23.002;2023-03-11T04:50:53;95494.16;;;11.28;100.00
36630;BME280;36256;42.154;23.002;2023-03-11T04:53:21;95504.38;;;11.31;100.00
36630;BME280;36256;42.154;23.002;2023-03-11T04:55:48;95463.31;;;10.96;100.00
36630;BME280;36256;42.154;23.002;2023-03-11T04:58:15;95488.94;;;11.10;100.00
36630;BME280;36256;42.154;23.002;2023-03-11T05:00:42;95495.56;;;11.07;100.00
36630;BME280;36256;42.154;23.002;2023-03-11T05:03:09;95496.31;;;11.07;100.00
36630;BME280;36256;42.154;23.002;2023-03-11T05:05:35;95498.56;;;10.97;100.00
36630;BME280;36256;42.154;23.002;2023-03-11T05:08:02;95496.53;;;10.98;100.00
36630;BME280;36256;42.154;23.002;2023-03-11T05:10:29;95500.06;;;10.98;100.00
36630;BME280;36256;42.154;23.002;2023-03-11T05:12:57;95502.16;;;11.03;100.00
36630;BME280;36256;42.154;23.002;2023-03-11T05:15:24;95504.97;;;11.03;100.00
36630;BME280;36256;42.154;23.002;2023-03-11T05:17:50;95506.78;;;11.07;100.00
36630;BME280;36256;42.154;23.002;2023-03-11T05:20:17;95496.03;;;10.99;100.00
36630;BME280;36256;42.154;23.002;2023-03-11T05:22:44;95499.34;;;11.03;100.00
36630;BME280;36256;42.154;23.002;2023-03-11T05:25:10;95500.69;;;11.14;100.00
36630;BME280;36256;42.154;23.002;2023-03-11T05:27:37;95502.03;;;11.24;100.00
36630;BME280;36256;42.154;23.002;2023-03-11T05:30:04;95509.72;;;11.29;100.00
36630;BME280;36256;42.154;23.002;2023-03-11T05:32:30;95515.59;;;11.31;100.00
36630;BME280;36256;42.154;23.002;2023-03-11T05:34:57;95515.13;;;11.38;100.00
36630;BME280;36256;42.154;23.002;2023-03-11T05:37:24;95511.81;;;11.39;100.00
36630;BME280;36256;42.154;23.002;2023-03-11T05:39:51;95501.22;;;11.18;100.00
36630;BME280;36256;42.154;23.002;2023-03-11T05:42:18;95492.75;;;11.07;100.00
36630;BME280;36256;42.154;23.002;2023-03-11T05:44:46;95499.78;;;11.28;100.00
36630;BME280;36256;42.154;23.002;2023-03-11T05:47:15;95522.97;;;11.28;100.00
36630;BME280;36256;42.154;23.002;2023-03-11T05:49:42;95512.53;;;11.34;100.00
36630;BME280;36256;42.154;23.002;2023-03-11T05:52:08;95519.69;;;11.30;100.00
36630;BME280;36256;42.154;23.002;2023-03-11T05:54:35;95534.44;;;11.25;100.00
36630;BME280;36256;42.154;23.002;2023-03-11T05:57:02;95532.50;;;11.42;100.00
36630;BME280;36256;42.154;23.002;2023-03-11T05:59:28;95534.09;;;11.54;100.00
36630;BME280;36256;42.154;23.002;2023-03-11T06:01:55;95533.91;;;11.63;100.00
36630;BME280;36256;42.154;23.002;2023-03-11T06:04:22;95537.03;;;11.70;100.00
36630;BME280;36256;42.154;23.002;2023-03-11T06:06:48;95539.88;;;11.76;100.00
36630;BME280;36256;42.154;23.002;2023-03-11T06:09:15;95544.50;;;11.85;100.00
36630;BME280;36256;42.154;23.002;2023-03-11T06:11:42;95548.59;;;11.89;100.00
36630;BME280;36256;42.154;23.002;2023-03-11T06:14:10;95532.22;;;11.82;100.00
36630;BME280;36256;42.154;23.002;2023-03-11T06:16:39;95545.25;;;11.79;100.00
36630;BME280;36256;42.154;23.002;2023-03-11T06:19:06;95518.41;;;11.73;100.00
36630;BME280;36256;42.154;23.002;2023-03-11T06:21:33;95540.16;;;11.83;100.00
36630;BME280;36256;42.154;23.002;2023-03-11T06:23:59;95544.00;;;11.86;100.00
36630;BME280;36256;42.154;23.002;2023-03-11T06:26:26;95547.06;;;11.88;100.00
36630;BME280;36256;42.154;23.002;2023-03-11T06:28:53;95533.53;;;11.87;100.00
36630;BME280;36256;42.154;23.002;2023-03-11T06:31:24;95543.94;;;11.75;100.00
36630;BME280;36256;42.154;23.002;2023-03-11T06:33:52;95535.03;;;11.82;100.00
36630;BME280;36256;42.154;23.002;2023-03-11T06:36:21;95528.66;;;11.87;100.00
36630;BME280;36256;42.154;23.002;2023-03-11T06:38:50;95542.75;;;11.93;100.00
36630;BME280;36256;42.154;23.002;2023-03-11T06:41:17;95525.16;;;12.03;100.00
36630;BME280;36256;42.154;23.002;2023-03-11T06:43:44;95533.91;;;12.27;100.00
36630;BME280;36256;42.154;23.002;2023-03-11T06:46:14;95521.94;;;12.60;100.00
36630;BME280;36256;42.154;23.002;2023-03-11T06:48:41;95525.56;;;13.05;100.00
36630;BME280;36256;42.154;23.002;2023-03-11T06:51:08;95526.06;;;13.25;100.00
36630;BME280;36256;42.154;23.002;2023-03-11T06:53:35;95513.78;;;13.23;98.96
36630;BME280;36256;42.154;23.002;2023-03-11T06:56:10;95523.22;;;13.31;99.32
36630;BME280;36256;42.154;23.002;2023-03-11T06:58:38;95529.34;;;13.46;98.92
36630;BME280;36256;42.154;23.002;2023-03-11T07:01:08;95521.06;;;13.76;96.51
36630;BME280;36256;42.154;23.002;2023-03-11T07:03:36;95518.44;;;14.46;95.09
36630;BME280;36256;42.154;23.002;2023-03-11T07:06:03;95533.00;;;15.50;90.36
36630;BME280;36256;42.154;23.002;2023-03-11T07:08:32;95525.78;;;16.22;83.91
36630;BME280;36256;42.154;23.002;2023-03-11T07:11:23;95521.25;;;17.19;80.60
36630;BME280;36256;42.154;23.002;2023-03-11T07:13:51;95512.22;;;17.53;73.80
36630;BME280;36256;42.154;23.002;2023-03-11T07:16:20;95500.00;;;17.84;73.07
36630;BME280;36256;42.154;23.002;2023-03-11T07:18:48;95494.56;;;17.73;69.30
36630;BME280;36256;42.154;23.002;2023-03-11T07:21:18;95501.16;;;17.49;72.60
36630;BME280;36256;42.154;23.002;2023-03-11T07:23:46;95502.94;;;17.52;72.95
36630;BME280;36256;42.154;23.002;2023-03-11T07:26:14;95505.53;;;17.05;74.05
36630;BME280;36256;42.154;23.002;2023-03-11T07:28:41;95500.94;;;17.02;74.33
36630;BME280;36256;42.154;23.002;2023-03-11T07:31:13;95491.69;;;16.70;72.02
36630;BME280;36256;42.154;23.002;2023-03-11T07:33:40;95494.91;;;16.61;73.32
36630;BME280;36256;42.154;23.002;2023-03-11T07:36:12;95486.50;;;16.56;73.25
36630;BME280;36256;42.154;23.002;2023-03-11T07:38:40;95487.34;;;16.82;70.87
36630;BME280;36256;42.154;23.002;2023-03-11T07:41:08;95470.31;;;16.69;67.25
36630;BME280;36256;42.154;23.002;2023-03-11T07:43:36;95469.75;;;16.71;69.08
36630;BME280;36256;42.154;23.002;2023-03-11T07:46:14;95465.53;;;17.09;67.56
36630;BME280;36256;42.154;23.002;2023-03-11T07:48:49;95457.63;;;17.34;65.07
36630;BME280;36256;42.154;23.002;2023-03-11T07:51:18;95440.41;;;17.32;64.02
36630;BME280;36256;42.154;23.002;2023-03-11T07:53:46;95439.50;;;17.23;62.31
36630;BME280;36256;42.154;23.002;2023-03-11T07:56:13;95443.72;;;17.62;60.67
36630;BME280;36256;42.154;23.002;2023-03-11T07:58:41;95436.53;;;17.74;60.62
36630;BME280;36256;42.154;23.002;2023-03-11T08:01:13;95427.75;;;17.85;61.71
36630;BME280;36256;42.154;23.002;2023-03-11T08:03:43;95419.34;;;17.27;60.79
36630;BME280;36256;42.154;23.002;2023-03-11T08:06:11;95432.78;;;17.66;60.52
36630;BME280;36256;42.154;23.002;2023-03-11T08:08:39;95429.06;;;17.97;61.37
36630;BME280;36256;42.154;23.002;2023-03-11T08:11:05;95424.28;;;18.39;58.62
36630;BME280;36256;42.154;23.002;2023-03-11T08:13:32;95417.25;;;18.53;56.83
36630;BME280;36256;42.154;23.002;2023-03-11T08:16:03;95410.28;;;18.74;56.81
36630;BME280;36256;42.154;23.002;2023-03-11T08:18:30;95404.47;;;19.01;53.23
36630;BME280;36256;42.154;23.002;2023-03-11T08:20:58;95383.06;;;18.58;52.91
36630;BME280;36256;42.154;23.002;2023-03-11T08:23:24;95375.97;;;18.52;53.49
36630;BME280;36256;42.154;23.002;2023-03-11T08:25:51;95373.13;;;18.52;53.82
36630;BME280;36256;42.154;23.002;2023-03-11T08:28:17;95372.00;;;18.75;55.14
36630;BME280;36256;42.154;23.002;2023-03-11T08:30:44;95374.25;;;19.39;53.53
36630;BME280;36256;42.154;23.002;2023-03-11T08:33:10;95368.22;;;19.78;52.34
36630;BME280;36256;42.154;23.002;2023-03-11T08:35:37;95365.50;;;19.65;51.73
36630;BME280;36256;42.154;23.002;2023-03-11T08:38:04;95367.25;;;19.40;51.29
36630;BME280;36256;42.154;23.002;2023-03-11T08:40:30;95357.94;;;19.75;51.36
36630;BME280;36256;42.154;23.002;2023-03-11T08:42:57;95347.38;;;20.26;50.95
36630;BME280;36256;42.154;23.002;2023-03-11T08:45:24;95336.44;;;19.59;50.48
36630;BME280;36256;42.154;23.002;2023-03-11T08:47:50;95341.56;;;19.04;53.72
36630;BME280;36256;42.154;23.002;2023-03-11T08:50:18;95343.16;;;19.13;53.99
36630;BME280;36256;42.154;23.002;2023-03-11T08:52:45;95348.84;;;19.13;54.13
36630;BME280;36256;42.154;23.002;2023-03-11T08:55:16;95349.41;;;18.91;52.19
36630;BME280;36256;42.154;23.002;2023-03-11T08:57:49;95342.50;;;18.78;53.07
36630;BME280;36256;42.154;23.002;2023-03-11T09:00:15;95334.78;;;18.58;53.83
36630;BME280;36256;42.154;23.002;2023-03-11T09:02:42;95332.84;;;19.02;51.22
36630;BME280;36256;42.154;23.002;2023-03-11T09:05:09;95336.38;;;19.44;51.85
36630;BME280;36256;42.154;23.002;2023-03-11T09:07:36;95319.59;;;20.19;48.41
36630;BME280;36256;42.154;23.002;2023-03-11T09:10:03;95328.22;;;20.50;48.48
36630;BME280;36256;42.154;23.002;2023-03-11T09:12:30;95320.28;;;20.93;49.05
36630;BME280;36256;42.154;23.002;2023-03-11T09:14:57;95296.72;;;21.00;46.14
36630;BME280;36256;42.154;23.002;2023-03-11T09:17:24;95294.81;;;21.10;46.10
36630;BME280;36256;42.154;23.002;2023-03-11T09:19:50;95265.06;;;21.51;44.55
36630;BME280;36256;42.154;23.002;2023-03-11T09:22:17;95283.25;;;21.71;44.58
36630;BME280;36256;42.154;23.002;2023-03-11T09:24:44;95283.97;;;20.94;44.76
36630;BME280;36256;42.154;23.002;2023-03-11T09:27:10;95281.50;;;20.83;46.50
36630;BME280;36256;42.154;23.002;2023-03-11T09:29:38;95282.25;;;20.91;46.06
36630;BME280;36256;42.154;23.002;2023-03-11T09:32:05;95287.00;;;21.26;45.80
36630;BME280;36256;42.154;23.002;2023-03-11T09:34:32;95284.91;;;20.28;46.55
36630;BME280;36256;42.154;23.002;2023-03-11T09:37:00;95288.22;;;19.97;46.32
36630;BME280;36256;42.154;23.002;2023-03-11T09:39:26;95288.47;;;19.55;46.60
36630;BME280;36256;42.154;23.002;2023-03-11T09:41:55;95274.47;;;19.01;48.56
36630;BME280;36256;42.154;23.002;2023-03-11T09:44:42;95299.47;;;18.74;50.00
36630;BME280;36256;42.154;23.002;2023-03-11T09:58:12;95303.69;;;17.52;52.66
36630;BME280;36256;42.154;23.002;2023-03-11T10:00:39;95293.22;;;17.07;53.68
36630;BME280;36256;42.154;23.002;2023-03-11T10:03:16;95318.63;;;17.13;53.87
36630;BME280;36256;42.154;23.002;2023-03-11T10:05:47;95323.53;;;16.99;54.94
36630;BME280;36256;42.154;23.002;2023-03-11T10:10:53;95323.09;;;16.82;55.03
36630;BME280;36256;42.154;23.002;2023-03-11T10:13:33;95323.16;;;16.64;55.01
36630;BME280;36256;42.154;23.002;2023-03-11T10:19:28;95338.38;;;16.29;56.70
36630;BME280;36256;42.154;23.002;2023-03-11T10:22:09;95353.97;;;16.04;58.81
36630;BME280;36256;42.154;23.002;2023-03-11T10:27:39;95363.53;;;16.01;62.80
36630;BME280;36256;42.154;23.002;2023-03-11T10:32:55;95378.59;;;16.09;62.60
36630;BME280;36256;42.154;23.002;2023-03-11T10:35:31;95373.75;;;16.04;64.85
36630;BME280;36256;42.154;23.002;2023-03-11T10:38:15;95367.16;;;16.14;65.75
36630;BME280;36256;42.154;23.002;2023-03-11T10:40:47;95372.22;;;16.21;67.81
36630;BME280;36256;42.154;23.002;2023-03-11T10:43:20;95364.19;;;16.25;65.79
36630;BME280;36256;42.154;23.002;2023-03-11T10:45:52;95361.19;;;16.18;62.31
36630;BME280;36256;42.154;23.002;2023-03-11T10:48:20;95361.41;;;16.20;64.97
36630;BME280;36256;42.154;23.002;2023-03-11T10:50:56;95366.84;;;16.18;64.69
36630;BME280;36256;42.154;23.002;2023-03-11T10:53:26;95361.50;;;16.14;64.07
36630;BME280;36256;42.154;23.002;2023-03-11T10:55:54;95358.44;;;16.12;64.53
36630;BME280;36256;42.154;23.002;2023-03-11T10:58:29;95357.97;;;16.27;62.35
36630;BME280;36256;42.154;23.002;2023-03-11T11:01:10;95356.59;;;16.33;62.69
36630;BME280;36256;42.154;23.002;2023-03-11T11:03:44;95354.84;;;16.62;59.31
36630;BME280;36256;42.154;23.002;2023-03-11T11:06:21;95340.94;;;16.77;57.22
36630;BME280;36256;42.154;23.002;2023-03-11T11:08:48;95335.19;;;16.83;57.88
36630;BME280;36256;42.154;23.002;2023-03-11T11:11:23;95317.84;;;16.86;56.81
36630;BME280;36256;42.154;23.002;2023-03-11T11:13:58;95311.56;;;16.93;56.16
36630;BME280;36256;42.154;23.002;2023-03-11T11:16:26;95295.31;;;16.81;54.83
36630;BME280;36256;42.154;23.002;2023-03-11T11:19:02;95308.91;;;16.82;56.12
36630;BME280;36256;42.154;23.002;2023-03-11T11:21:34;95307.72;;;16.91;56.14
36630;BME280;36256;42.154;23.002;2023-03-11T11:24:11;95311.28;;;16.65;57.98
36630;BME280;36256;42.154;23.002;2023-03-11T11:26:39;95305.75;;;16.41;60.39
36630;BME280;36256;42.154;23.002;2023-03-11T11:31:37;95308.47;;;16.02;63.57
36630;BME280;36256;42.154;23.002;2023-03-11T11:34:26;95321.78;;;16.07;65.53
36630;BME280;36256;42.154;23.002;2023-03-11T11:36:54;95331.59;;;16.19;65.40
36630;BME280;36256;42.154;23.002;2023-03-11T11:39:25;95319.84;;;16.15;63.71
36630;BME280;36256;42.154;23.002;2023-03-11T11:41:54;95309.81;;;16.14;61.81
36630;BME280;36256;42.154;23.002;2023-03-11T11:44:27;95298.94;;;16.18;60.05
36630;BME280;36256;42.154;23.002;2023-03-11T11:46:58;95293.59;;;16.14;59.22
36630;BME280;36256;42.154;23.002;2023-03-11T11:49:32;95290.19;;;16.34;60.27
36630;BME280;36256;42.154;23.002;2023-03-11T11:52:05;95279.13;;;16.49;59.46
36630;BME280;36256;42.154;23.002;2023-03-11T11:57:15;95281.44;;;16.51;58.65
36630;BME280;36256;42.154;23.002;2023-03-11T11:59:43;95279.41;;;16.33;58.58
36630;BME280;36256;42.154;23.002;2023-03-11T12:02:51;95276.81;;;16.48;58.96
36630;BME280;36256;42.154;23.002;2023-03-11T12:08:13;95279.50;;;16.27;58.15
36630;BME280;36256;42.154;23.002;2023-03-11T12:10:51;95276.31;;;16.18;58.46
36630;BME280;36256;42.154;23.002;2023-03-11T12:21:46;95271.41;;;16.18;60.19
36630;BME280;36256;42.154;23.002;2023-03-11T12:26:43;95276.19;;;16.10;61.67
36630;BME280;36256;42.154;23.002;2023-03-11T12:30:02;95277.09;;;16.18;60.96
36630;BME280;36256;42.154;23.002;2023-03-11T12:32:51;95266.97;;;16.23;61.24
36630;BME280;36256;42.154;23.002;2023-03-11T12:35:26;95260.88;;;16.19;60.29
36630;BME280;36256;42.154;23.002;2023-03-11T12:46:14;95254.16;;;16.22;63.97
36630;BME280;36256;42.154;23.002;2023-03-11T12:48:57;95261.53;;;16.25;62.65
36630;BME280;36256;42.154;23.002;2023-03-11T13:07:52;95275.47;;;16.23;55.74
36630;BME280;36256;42.154;23.002;2023-03-11T13:13:39;95275.16;;;16.39;58.31
36630;BME280;36256;42.154;23.002;2023-03-11T13:18:46;95260.75;;;16.56;56.17
36630;BME280;36256;42.154;23.002;2023-03-11T13:27:10;95257.16;;;16.69;57.84
36630;BME280;36256;42.154;23.002;2023-03-11T13:30:11;95250.19;;;16.57;54.88
36630;BME280;36256;42.154;23.002;2023-03-11T13:35:53;95252.25;;;16.56;57.49
36630;BME280;36256;42.154;23.002;2023-03-11T13:41:30;95267.19;;;16.57;54.20
36630;BME280;36256;42.154;23.002;2023-03-11T13:44:10;95264.47;;;16.51;53.87
36630;BME280;36256;42.154;23.002;2023-03-11T13:46:40;95252.44;;;16.45;54.35
36630;BME280;36256;42.154;23.002;2023-03-11T13:52:07;95257.19;;;16.24;52.92
36630;BME280;36256;42.154;23.002;2023-03-11T13:55:04;95266.56;;;16.32;52.65
36630;BME280;36256;42.154;23.002;2023-03-11T13:57:34;95266.78;;;16.34;51.79
36630;BME280;36256;42.154;23.002;2023-03-11T14:00:13;95276.56;;;16.33;51.84
36630;BME280;36256;42.154;23.002;2023-03-11T14:02:49;95280.06;;;16.39;51.46
36630;BME280;36256;42.154;23.002;2023-03-11T14:05:21;95289.88;;;16.38;51.12
36630;BME280;36256;42.154;23.002;2023-03-11T14:07:48;95302.72;;;16.39;51.46
36630;BME280;36256;42.154;23.002;2023-03-11T14:10:23;95303.63;;;16.47;50.69
36630;BME280;36256;42.154;23.002;2023-03-11T14:12:51;95304.31;;;16.53;54.46
36630;BME280;36256;42.154;23.002;2023-03-11T14:15:25;95343.16;;;16.21;53.33
36630;BME280;36256;42.154;23.002;2023-03-11T14:17:53;95340.91;;;15.63;57.45
36630;BME280;36256;42.154;23.002;2023-03-11T14:20:23;95363.03;;;15.41;62.61
36630;BME280;36256;42.154;23.002;2023-03-11T14:22:54;95366.63;;;15.17;63.17
36630;BME280;36256;42.154;23.002;2023-03-11T14:25:24;95367.09;;;15.21;63.77
36630;BME280;36256;42.154;23.002;2023-03-11T14:27:54;95376.00;;;15.31;64.52
36630;BME280;36256;42.154;23.002;2023-03-11T14:30:28;95369.25;;;15.34;63.80
36630;BME280;36256;42.154;23.002;2023-03-11T14:33:13;95349.78;;;15.30;65.51